Main page
METAR-TAF:

METAR-TAF

Airports :

Northwest Alabama Regional Airport

Muscle Shoals, Alabama, United States

latitude: 34-44-38N, longitude: 087-35-58W, elevation: 548 ft

Current weather observation

The report was made 7 minutes ago, at 19:53 UTC
Wind 15 mph from the South/Southwest with gusts up to 23 mph
Temperature 97°F
Humidity 37%
Pressure 30.07 in. Hg
Visibility: 10 miles
Clear sky

METAR: KMSL 141953Z AUTO 21013G20KT 10SM CLR 36/19 A3007 RMK AO2 SLP174 T03610194

Time: 15:00 (20:00 UTC)

Forecast

The report was made 2 hours and 18 minutes ago, at 17:42 UTC
Forecast valid from 14 at 18 UTC to 15 at 18 UTC
Wind 5 mph from variable directions
Visibility: 6 miles
Scattered clouds at a height of 8000 ft, Cumulonimbus.
thunderstorm in vicinity
From 15 at 0200 UTC
Wind 3 mph from variable directions
Visibility: 6 miles
Few clouds at a height of 20000 ft

TAF: KMSL 141742Z 1418/1518 VRB04KT P6SM VCTS SCT080CB FM150200 VRB03KT P6SM FEW200

Weather observations and forecasts of more than 4000 airports (METAR and TAF reports).

The available stations are represented by yellow and red dots on the map.

Hover mouse over dot to see the name of the station.

Then click to see weather observations and forecasts.

To change the map : click on the green buttons with a black cross to zoom in, on the green button with a dash to zoom out, or on the green arrows for adjacent maps.


METAR-TAF: